createdAt,value
2019-01-12T00:00:43.753Z,4.83
2019-01-12T00:03:25.898Z,4.57
2019-01-12T00:06:07.868Z,4.70
2019-01-12T00:08:50.125Z,4.90
2019-01-12T00:11:32.059Z,4.27
2019-01-12T00:14:13.986Z,4.50
2019-01-12T00:16:55.904Z,4.90
2019-01-12T00:19:37.958Z,4.87
2019-01-12T00:22:20.296Z,4.07
2019-01-12T00:28:01.386Z,4.33
2019-01-12T00:30:42.906Z,4.20
2019-01-12T00:33:24.884Z,4.03
2019-01-12T00:36:06.969Z,3.60
2019-01-12T00:38:48.789Z,3.60
2019-01-12T00:41:30.664Z,3.80
2019-01-12T00:44:13.073Z,4.40
2019-01-12T00:46:55.184Z,4.00
2019-01-12T00:49:37.457Z,4.20
2019-01-12T00:52:19.854Z,4.70
2019-01-12T00:55:02.087Z,5.87
2019-01-12T00:57:42.670Z,4.73
2019-01-12T01:00:32.041Z,3.97
2019-01-12T01:03:21.329Z,4.03
2019-01-12T01:06:10.837Z,3.77
2019-01-12T01:09:00.191Z,3.60
2019-01-12T01:11:49.457Z,3.47
2019-01-12T01:14:38.847Z,3.33
2019-01-12T01:17:28.097Z,3.33
2019-01-12T01:20:17.666Z,3.03
2019-01-12T01:23:07.041Z,2.57
2019-01-12T01:25:56.389Z,3.70
2019-01-12T01:28:45.677Z,3.50
2019-01-12T01:31:34.940Z,3.20
2019-01-12T01:34:24.304Z,3.80
2019-01-12T01:37:06.661Z,3.03
2019-01-12T01:39:50.513Z,4.73
2019-01-12T01:42:32.500Z,4.40
2019-01-12T01:45:14.523Z,4.77
2019-01-12T01:47:56.089Z,5.80
2019-01-12T01:50:38.509Z,6.47
2019-01-12T01:53:20.761Z,5.60
2019-01-12T01:56:02.617Z,6.13
2019-01-12T01:58:46.921Z,4.47
2019-01-12T02:01:29.225Z,3.13
2019-01-12T02:04:11.321Z,3.07
2019-01-12T02:06:53.348Z,2.30
2019-01-12T02:09:35.454Z,2.83
2019-01-12T02:12:17.773Z,2.50
2019-01-12T02:14:59.848Z,2.77
2019-01-12T02:17:41.512Z,2.33
2019-01-12T02:20:23.314Z,2.93
2019-01-12T02:23:05.240Z,3.03
2019-01-12T02:25:47.200Z,2.60
2019-01-12T02:28:28.865Z,3.13
2019-01-12T02:31:11.202Z,2.90
2019-01-12T02:33:53.428Z,3.00
2019-01-12T02:36:35.608Z,2.53
2019-01-12T02:39:17.789Z,2.57
2019-01-12T02:41:59.394Z,2.50
2019-01-12T02:44:41.596Z,2.30
2019-01-12T02:47:23.083Z,2.40
2019-01-12T02:50:05.290Z,2.27
2019-01-12T02:52:47.297Z,2.60
2019-01-12T02:55:29.144Z,2.50
2019-01-12T02:58:11.158Z,1.90
2019-01-12T03:00:53.100Z,1.93
2019-01-12T03:03:35.440Z,2.20
2019-01-12T03:09:16.753Z,2.20
2019-01-12T03:11:59.026Z,2.00
2019-01-12T03:14:40.987Z,1.83
2019-01-12T03:17:22.976Z,2.07
2019-01-12T03:20:04.990Z,1.77
2019-01-12T03:22:47.170Z,2.10
2019-01-12T03:25:28.761Z,3.00
2019-01-12T03:28:10.650Z,2.40
2019-01-12T03:30:53.091Z,2.47
2019-01-12T03:33:35.217Z,2.83
2019-01-12T03:36:17.513Z,2.73
2019-01-12T03:38:59.538Z,2.23
2019-01-12T03:41:41.625Z,2.50
2019-01-12T03:47:56.195Z,2.07
2019-01-12T03:50:38.165Z,2.10
2019-01-12T03:53:20.684Z,1.77
2019-01-12T03:56:04.709Z,1.97
2019-01-12T03:58:46.722Z,1.90
2019-01-12T04:01:28.300Z,2.00
2019-01-12T04:04:13.462Z,1.83
2019-01-12T04:06:53.885Z,1.50
2019-01-12T04:09:43.157Z,1.40
2019-01-12T04:12:32.505Z,1.70
2019-01-12T04:15:21.792Z,1.60
2019-01-12T04:18:11.041Z,1.70
2019-01-12T04:21:00.319Z,1.60
2019-01-12T04:23:49.645Z,1.80
2019-01-12T04:26:39.082Z,1.87
2019-01-12T04:29:28.390Z,2.10
2019-01-12T04:32:17.667Z,1.50
2019-01-12T04:35:07.351Z,2.03
2019-01-12T04:37:56.710Z,1.57
2019-01-12T04:40:45.985Z,1.40
2019-01-12T04:43:35.256Z,1.40
2019-01-12T04:46:24.630Z,1.27
2019-01-12T04:49:13.973Z,1.40
2019-01-12T04:52:02.747Z,1.30
2019-01-12T04:54:51.866Z,1.73
2019-01-12T04:57:41.180Z,1.90
2019-01-12T05:00:30.433Z,1.77
2019-01-12T05:03:19.769Z,1.60
2019-01-12T05:06:09.139Z,1.67
2019-01-12T05:08:58.509Z,1.40
2019-01-12T05:11:47.918Z,1.57
2019-01-12T05:14:37.302Z,1.60
2019-01-12T05:17:26.678Z,1.50
2019-01-12T05:20:08.610Z,1.77
2019-01-12T05:22:50.727Z,1.43
2019-01-12T05:25:32.447Z,1.50
2019-01-12T05:28:14.250Z,1.53
2019-01-12T05:30:55.873Z,1.50
2019-01-12T05:33:37.971Z,1.40
2019-01-12T05:36:20.264Z,1.30
2019-01-12T05:39:02.579Z,1.20
2019-01-12T05:41:44.243Z,1.20
2019-01-12T05:44:26.533Z,1.60
2019-01-12T05:47:08.846Z,1.53
2019-01-12T05:49:50.892Z,1.40
2019-01-12T05:52:33.127Z,3.73
2019-01-12T05:55:15.222Z,2.00
2019-01-12T05:57:57.166Z,1.67
2019-01-12T06:00:39.313Z,1.60
2019-01-12T06:03:21.562Z,1.90
2019-01-12T06:06:03.344Z,1.80
2019-01-12T06:08:45.005Z,1.90
2019-01-12T06:11:26.936Z,2.03
2019-01-12T06:14:08.834Z,1.70
2019-01-12T06:16:50.960Z,2.33
2019-01-12T06:19:32.958Z,2.33
2019-01-12T06:22:15.308Z,2.20
2019-01-12T06:24:57.078Z,2.43
2019-01-12T06:27:38.736Z,2.97
2019-01-12T06:30:21.143Z,2.00
2019-01-12T06:33:03.314Z,2.07
2019-01-12T06:35:45.733Z,2.30
2019-01-12T06:38:27.930Z,1.97
2019-01-12T06:41:10.293Z,2.37
2019-01-12T06:43:52.445Z,2.57
2019-01-12T06:46:34.440Z,1.90
2019-01-12T06:49:16.389Z,2.17
2019-01-12T06:51:58.036Z,1.80
2019-01-12T06:54:40.335Z,2.10
2019-01-12T06:57:22.738Z,1.90
2019-01-12T07:00:05.119Z,2.17
2019-01-12T07:02:47.256Z,2.10
2019-01-12T07:05:29.288Z,2.10
2019-01-12T07:08:11.759Z,2.20
2019-01-12T07:10:54.008Z,2.73
2019-01-12T07:13:36.061Z,2.10
2019-01-12T07:16:18.261Z,2.00
2019-01-12T07:19:00.567Z,2.10
2019-01-12T07:21:42.870Z,2.07
2019-01-12T07:24:24.628Z,2.00
2019-01-12T07:27:06.953Z,1.70
2019-01-12T07:29:49.132Z,2.13
2019-01-12T07:32:30.892Z,2.13
2019-01-12T07:35:12.865Z,2.07
2019-01-12T07:37:54.516Z,2.10
2019-01-12T07:40:36.522Z,2.80
2019-01-12T07:43:18.397Z,2.30
2019-01-12T07:46:00.637Z,3.10
2019-01-12T07:48:42.271Z,2.13
2019-01-12T07:51:24.220Z,2.23
2019-01-12T07:54:06.107Z,2.87
2019-01-12T07:56:47.940Z,2.50
2019-01-12T07:59:29.634Z,2.63
2019-01-12T08:02:11.228Z,2.60
2019-01-12T08:04:53.677Z,2.30
2019-01-12T08:07:34.077Z,2.10
2019-01-12T08:10:42.412Z,2.30
2019-01-12T08:13:31.776Z,2.33
2019-01-12T08:16:21.131Z,2.60
2019-01-12T08:19:10.523Z,2.10
2019-01-12T08:21:59.812Z,3.10
2019-01-12T08:24:49.176Z,2.47
2019-01-12T08:27:38.484Z,3.20
2019-01-12T08:30:27.850Z,2.90
2019-01-12T08:33:17.158Z,2.70
2019-01-12T08:36:06.512Z,2.53
2019-01-12T08:38:55.925Z,2.50
2019-01-12T08:41:45.283Z,2.80
2019-01-12T08:44:34.672Z,2.77
2019-01-12T08:47:24.102Z,2.37
2019-01-12T08:53:43.532Z,3.13
2019-01-12T08:56:38.236Z,3.00
2019-01-12T08:59:43.301Z,2.77
2019-01-12T09:02:32.661Z,2.50
2019-01-12T09:05:22.008Z,2.60
2019-01-12T09:08:11.322Z,2.90
2019-01-12T09:11:00.669Z,2.70
2019-01-12T09:13:49.480Z,2.57
2019-01-12T09:16:38.106Z,2.63
2019-01-12T09:19:27.370Z,2.60
2019-01-12T09:22:16.702Z,2.60
2019-01-12T09:25:06.132Z,2.90
2019-01-12T09:27:55.509Z,2.60
2019-01-12T09:30:48.458Z,2.43
2019-01-12T09:33:48.385Z,2.07
2019-01-12T09:36:30.824Z,2.63
2019-01-12T09:39:12.874Z,2.20
2019-01-12T09:41:54.381Z,2.50
2019-01-12T09:44:36.569Z,2.33
2019-01-12T09:47:18.408Z,2.40
2019-01-12T09:50:00.529Z,2.80
2019-01-12T09:52:42.909Z,2.67
2019-01-12T09:55:25.005Z,3.80
2019-01-12T09:58:07.408Z,2.63
2019-01-12T10:00:49.671Z,2.63
2019-01-12T10:03:31.954Z,2.57
2019-01-12T10:06:14.072Z,2.80
2019-01-12T10:08:55.650Z,3.50
2019-01-12T10:11:37.981Z,2.80
2019-01-12T10:14:19.842Z,3.13
2019-01-12T10:17:01.734Z,3.07
2019-01-12T10:19:43.418Z,2.97
2019-01-12T10:22:28.615Z,2.70
2019-01-12T10:25:08.922Z,3.10
2019-01-12T10:27:50.865Z,2.90
2019-01-12T10:30:32.651Z,2.70
2019-01-12T10:33:15.181Z,2.80
2019-01-12T10:35:57.371Z,2.60
2019-01-12T10:38:39.410Z,2.63
2019-01-12T10:41:21.279Z,2.40
2019-01-12T10:44:02.964Z,2.90
2019-01-12T10:46:45.254Z,2.90
2019-01-12T10:49:27.282Z,3.03
2019-01-12T10:52:09.409Z,3.50
2019-01-12T10:54:51.759Z,3.37
2019-01-12T10:57:33.656Z,2.70
2019-01-12T11:00:15.868Z,2.47
2019-01-12T11:02:57.947Z,2.63
2019-01-12T11:05:39.881Z,2.77
2019-01-12T11:08:23.772Z,2.70
2019-01-12T11:11:06.174Z,3.03
2019-01-12T11:13:48.605Z,2.77
2019-01-12T11:16:30.431Z,4.27
2019-01-12T11:19:11.990Z,2.90
2019-01-12T11:21:54.036Z,3.10
2019-01-12T11:24:35.917Z,2.70
2019-01-12T11:27:17.923Z,2.77
2019-01-12T11:29:59.957Z,3.47
2019-01-12T11:32:41.820Z,3.63
2019-01-12T11:35:24.190Z,3.20
2019-01-12T11:38:06.480Z,3.10
2019-01-12T11:40:48.233Z,3.37
2019-01-12T11:43:30.373Z,3.33
2019-01-12T11:46:12.030Z,3.20
2019-01-12T11:48:54.007Z,3.10
2019-01-12T11:51:36.000Z,3.30
2019-01-12T11:54:17.780Z,3.60
2019-01-12T11:56:59.809Z,3.80
2019-01-12T11:59:42.124Z,4.20
2019-01-12T12:02:23.623Z,6.17
2019-01-12T12:05:05.569Z,3.50
2019-01-12T12:07:47.043Z,3.60
2019-01-12T12:10:31.112Z,3.07
2019-01-12T12:13:13.299Z,3.83
2019-01-12T12:15:54.799Z,3.50
2019-01-12T12:18:36.808Z,3.70
2019-01-12T12:21:19.195Z,3.50
2019-01-12T12:24:01.017Z,3.70
2019-01-12T12:26:43.455Z,3.40
2019-01-12T12:29:25.189Z,3.20
2019-01-12T12:32:07.454Z,3.43
2019-01-12T12:34:49.475Z,3.40
2019-01-12T12:37:31.093Z,3.17
2019-01-12T12:40:13.463Z,3.63
2019-01-12T12:42:55.489Z,3.63
2019-01-12T12:45:37.467Z,3.80
2019-01-12T12:48:19.775Z,3.70
2019-01-12T12:51:01.348Z,3.63
2019-01-12T12:53:42.933Z,3.60
2019-01-12T12:56:24.580Z,3.70
2019-01-12T12:59:06.426Z,3.70
2019-01-12T13:01:48.434Z,3.83
2019-01-12T13:04:31.388Z,3.60
2019-01-12T13:07:13.693Z,4.30
2019-01-12T13:09:55.405Z,4.70
2019-01-12T13:12:37.387Z,4.47
2019-01-12T13:15:19.506Z,4.43
2019-01-12T13:18:01.503Z,4.57
2019-01-12T13:20:43.984Z,4.60
2019-01-12T13:23:25.709Z,4.73
2019-01-12T13:26:07.977Z,4.80
2019-01-12T13:28:49.790Z,4.47
2019-01-12T13:31:31.276Z,4.50
2019-01-12T13:34:13.050Z,4.60
2019-01-12T13:36:54.599Z,5.27
2019-01-12T13:39:36.898Z,4.50
2019-01-12T13:42:19.080Z,4.90
2019-01-12T13:45:00.652Z,6.37
2019-01-12T13:47:42.670Z,5.80
2019-01-12T13:50:23.916Z,6.30
2019-01-12T13:53:13.311Z,6.90
2019-01-12T13:56:02.687Z,6.20
2019-01-12T13:58:52.061Z,5.10
2019-01-12T14:01:41.432Z,4.63
2019-01-12T14:04:30.714Z,5.00
2019-01-12T14:07:20.080Z,6.33
2019-01-12T14:10:10.257Z,5.07
2019-01-12T14:12:59.642Z,4.80
2019-01-12T14:15:48.929Z,5.03
2019-01-12T14:18:38.317Z,5.20
2019-01-12T14:21:27.697Z,5.20
2019-01-12T14:24:17.067Z,4.63
2019-01-12T14:27:06.354Z,4.20
2019-01-12T14:29:55.672Z,5.13
2019-01-12T14:35:37.182Z,5.70
2019-01-12T14:38:19.173Z,7.83
2019-01-12T14:41:01.193Z,5.73
2019-01-12T14:43:43.270Z,7.67
2019-01-12T14:46:25.527Z,6.90
2019-01-12T14:49:07.096Z,5.90
2019-01-12T14:51:49.617Z,5.53
2019-01-12T14:54:31.803Z,5.30
2019-01-12T14:57:13.741Z,4.30
2019-01-12T14:59:56.205Z,4.10
2019-01-12T15:02:39.163Z,4.37
2019-01-12T15:05:20.810Z,4.50
2019-01-12T15:08:02.857Z,4.40
2019-01-12T15:10:44.620Z,3.83
2019-01-12T15:13:26.365Z,3.80
2019-01-12T15:16:08.589Z,4.33
2019-01-12T15:18:50.388Z,4.30
2019-01-12T15:21:32.058Z,4.00
2019-01-12T15:24:14.174Z,4.17
2019-01-12T15:26:56.329Z,4.03
2019-01-12T15:29:38.395Z,3.77
2019-01-12T15:32:20.715Z,4.40
2019-01-12T15:35:03.023Z,4.07
2019-01-12T15:37:47.094Z,4.30
2019-01-12T15:40:29.431Z,4.23
2019-01-12T15:43:11.454Z,4.27
2019-01-12T15:45:53.601Z,4.13
2019-01-12T15:48:35.500Z,4.13
2019-01-12T15:51:17.596Z,4.23
2019-01-12T15:54:00.114Z,4.03
2019-01-12T15:56:42.304Z,4.73
2019-01-12T15:59:24.240Z,4.70
2019-01-12T16:02:06.430Z,4.33
2019-01-12T16:04:48.733Z,4.40
2019-01-12T16:07:30.556Z,4.40
2019-01-12T16:10:12.243Z,4.00
2019-01-12T16:12:54.408Z,4.03
2019-01-12T16:15:36.201Z,3.47
2019-01-12T16:18:17.814Z,3.40
2019-01-12T16:21:00.010Z,3.90
2019-01-12T16:23:41.857Z,3.40
2019-01-12T16:26:24.257Z,3.07
2019-01-12T16:29:06.665Z,3.00
2019-01-12T16:31:48.661Z,2.87
2019-01-12T16:34:30.262Z,3.30
2019-01-12T16:37:12.473Z,3.00
2019-01-12T16:39:54.549Z,2.90
2019-01-12T16:42:36.434Z,3.23
2019-01-12T16:45:18.376Z,3.23
2019-01-12T16:47:58.891Z,3.37
2019-01-12T16:50:48.272Z,3.23
2019-01-12T16:53:37.633Z,3.40
2019-01-12T16:56:27.016Z,3.23
2019-01-12T16:59:16.382Z,3.23
2019-01-12T17:02:05.717Z,3.00
2019-01-12T17:04:55.070Z,2.90
2019-01-12T17:07:44.325Z,2.90
2019-01-12T17:10:33.685Z,2.80
2019-01-12T17:13:22.975Z,2.57
2019-01-12T17:16:12.313Z,2.87
2019-01-12T17:19:01.727Z,2.90
2019-01-12T17:21:51.073Z,3.17
2019-01-12T17:24:40.510Z,3.00
2019-01-12T17:27:29.845Z,2.80
2019-01-12T17:30:19.928Z,3.10
2019-01-12T17:33:02.001Z,3.30
2019-01-12T17:35:32.314Z,3.20
2019-01-12T17:38:21.708Z,3.87
2019-01-12T17:41:11.024Z,2.97
2019-01-12T17:44:00.391Z,3.30
2019-01-12T17:46:49.665Z,3.53
2019-01-12T17:49:39.042Z,3.90
2019-01-12T17:52:28.370Z,4.00
2019-01-12T17:58:53.608Z,3.80
2019-01-12T18:01:42.952Z,3.70
2019-01-12T18:04:32.348Z,3.90
2019-01-12T18:07:21.696Z,4.13
2019-01-12T18:10:11.842Z,4.30
2019-01-12T18:13:01.134Z,3.30
2019-01-12T18:15:50.424Z,2.70
2019-01-12T18:18:39.741Z,2.90
2019-01-12T18:21:29.014Z,2.83
2019-01-12T18:24:18.413Z,3.70
2019-01-12T18:27:07.682Z,3.20
2019-01-12T18:29:57.118Z,2.80
2019-01-12T18:32:38.643Z,3.00
2019-01-12T18:35:20.739Z,3.47
2019-01-12T18:38:02.224Z,3.43
2019-01-12T18:40:44.372Z,3.20
2019-01-12T18:43:26.184Z,3.13
2019-01-12T18:46:12.060Z,3.10
2019-01-12T18:48:51.756Z,3.17
2019-01-12T18:51:33.861Z,3.10
2019-01-12T18:54:16.259Z,2.50
2019-01-12T18:56:58.133Z,2.87
2019-01-12T18:59:39.976Z,2.50
2019-01-12T19:02:22.449Z,2.90
2019-01-12T19:05:04.472Z,2.90
2019-01-12T19:07:46.799Z,2.60
2019-01-12T19:10:30.898Z,2.60
2019-01-12T19:13:12.842Z,2.93
2019-01-12T19:15:55.277Z,2.13
2019-01-12T19:18:37.318Z,2.63
2019-01-12T19:21:19.817Z,2.70
2019-01-12T19:24:00.261Z,2.30
2019-01-12T19:26:49.636Z,2.60
2019-01-12T19:29:38.942Z,2.33
2019-01-12T19:32:21.304Z,2.00
2019-01-12T19:35:03.659Z,2.00
2019-01-12T19:37:45.533Z,2.33
2019-01-12T19:40:26.147Z,2.53
2019-01-12T19:43:15.566Z,2.10
2019-01-12T19:46:04.914Z,2.17
2019-01-12T19:48:54.309Z,2.20
2019-01-12T19:51:43.720Z,2.10
2019-01-12T19:54:33.103Z,1.73
2019-01-12T19:57:22.456Z,2.30
2019-01-12T20:00:13.944Z,1.90
2019-01-12T20:03:03.284Z,2.13
2019-01-12T20:05:52.584Z,1.77
2019-01-12T20:08:41.863Z,1.83
2019-01-12T20:11:31.169Z,1.73
2019-01-12T20:14:20.538Z,2.10
2019-01-12T20:17:09.894Z,1.60
2019-01-12T20:19:59.249Z,1.40
2019-01-12T20:23:03.475Z,1.53
2019-01-12T20:25:59.132Z,1.30
2019-01-12T20:28:48.571Z,1.20
2019-01-12T20:31:31.035Z,1.23
2019-01-12T20:34:13.300Z,1.30
2019-01-12T20:36:55.318Z,1.20
2019-01-12T20:39:37.377Z,1.03
2019-01-12T20:42:19.483Z,1.00
2019-01-12T20:45:01.466Z,1.10
2019-01-12T20:47:44.853Z,1.17
2019-01-12T20:50:26.623Z,1.67
2019-01-12T20:53:08.879Z,1.13
2019-01-12T20:55:50.461Z,1.20
2019-01-12T20:58:32.457Z,1.23
2019-01-12T21:01:14.594Z,1.10
2019-01-12T21:07:29.335Z,1.20
2019-01-12T21:10:11.484Z,1.00
2019-01-12T21:12:53.256Z,1.30
2019-01-12T21:19:07.614Z,1.50
2019-01-12T21:21:49.489Z,1.50
2019-01-12T21:28:04.488Z,1.43
2019-01-12T21:30:46.481Z,1.40
2019-01-12T21:33:28.554Z,1.50
2019-01-12T21:36:10.408Z,1.20
2019-01-12T21:38:52.225Z,1.10
2019-01-12T21:41:34.025Z,1.33
2019-01-12T21:44:15.583Z,1.10
2019-01-12T21:49:57.501Z,0.97
2019-01-12T21:52:39.572Z,1.00
2019-01-12T21:55:21.697Z,1.03
2019-01-12T21:58:03.434Z,1.10
2019-01-12T22:00:45.758Z,0.97
2019-01-12T22:03:27.589Z,1.00
2019-01-12T22:06:10.024Z,0.93
2019-01-12T22:08:52.129Z,1.03
2019-01-12T22:11:34.422Z,1.10
2019-01-12T22:14:16.651Z,0.90
2019-01-12T22:16:58.285Z,1.10
2019-01-12T22:19:40.353Z,0.80
2019-01-12T22:22:22.851Z,1.00
2019-01-12T22:25:04.809Z,0.90
2019-01-12T22:27:46.892Z,1.13
2019-01-12T22:30:28.744Z,0.97
2019-01-12T22:33:10.631Z,1.07
2019-01-12T22:35:52.361Z,1.10
2019-01-12T22:38:34.610Z,1.13
2019-01-12T22:41:16.274Z,1.33
2019-01-12T22:43:58.505Z,0.83
2019-01-12T22:46:40.558Z,1.30
2019-01-12T22:49:22.394Z,1.00
2019-01-12T22:52:04.692Z,1.10
2019-01-12T22:54:47.104Z,1.23
2019-01-12T22:57:28.770Z,1.20
2019-01-12T23:00:10.790Z,0.70
2019-01-12T23:02:53.229Z,0.90
2019-01-12T23:05:34.908Z,1.20
2019-01-12T23:08:15.416Z,1.30
2019-01-12T23:11:04.677Z,0.93
2019-01-12T23:13:54.064Z,0.83
2019-01-12T23:16:43.415Z,1.10
2019-01-12T23:19:32.773Z,1.17
2019-01-12T23:22:22.124Z,0.90
2019-01-12T23:25:11.382Z,1.00
2019-01-12T23:28:00.766Z,0.80
2019-01-12T23:30:50.050Z,0.97
2019-01-12T23:33:39.399Z,1.10
2019-01-12T23:36:28.681Z,0.90
2019-01-12T23:39:18.042Z,1.10
2019-01-12T23:42:07.306Z,1.03
2019-01-12T23:44:56.671Z,1.00
2019-01-12T23:47:45.953Z,0.60
2019-01-12T23:50:35.241Z,0.80
2019-01-12T23:53:24.589Z,1.07
2019-01-12T23:56:13.830Z,1.20
2019-01-12T23:59:03.213Z,1.00
